sensor_id;sensor_type;location;lat;lon;timestamp;pressure;altitude;pressure_sealevel;temperature;humidity
57763;BME280;43592;42.524;12.052;2022-11-15T00:00:29;97237.38;;;5.04;100.00
57763;BME280;43592;42.524;12.052;2022-11-15T00:02:55;97238.25;;;5.00;100.00
57763;BME280;43592;42.524;12.052;2022-11-15T00:05:20;97227.41;;;4.96;100.00
57763;BME280;43592;42.524;12.052;2022-11-15T00:07:46;97229.06;;;4.92;100.00
57763;BME280;43592;42.524;12.052;2022-11-15T00:10:11;97229.94;;;4.87;100.00
57763;BME280;43592;42.524;12.052;2022-11-15T00:12:37;97235.25;;;4.87;100.00
57763;BME280;43592;42.524;12.052;2022-11-15T00:15:02;97232.06;;;4.85;100.00
57763;BME280;43592;42.524;12.052;2022-11-15T00:17:28;97233.66;;;4.86;100.00
57763;BME280;43592;42.524;12.052;2022-11-15T00:19:54;97237.09;;;4.87;100.00
57763;BME280;43592;42.524;12.052;2022-11-15T00:22:20;97229.69;;;4.84;100.00
57763;BME280;43592;42.524;12.052;2022-11-15T00:24:46;97230.28;;;4.81;100.00
57763;BME280;43592;42.524;12.052;2022-11-15T00:27:11;97229.50;;;4.80;100.00
57763;BME280;43592;42.524;12.052;2022-11-15T00:29:37;97226.13;;;4.75;100.00
57763;BME280;43592;42.524;12.052;2022-11-15T00:32:11;97223.84;;;4.68;100.00
57763;BME280;43592;42.524;12.052;2022-11-15T00:34:36;97220.41;;;4.67;100.00
57763;BME280;43592;42.524;12.052;2022-11-15T00:37:02;97226.75;;;4.66;100.00
57763;BME280;43592;42.524;12.052;2022-11-15T00:39:27;97235.28;;;4.63;100.00
57763;BME280;43592;42.524;12.052;2022-11-15T00:41:52;97236.94;;;4.59;100.00
57763;BME280;43592;42.524;12.052;2022-11-15T00:44:18;97228.47;;;4.57;100.00
57763;BME280;43592;42.524;12.052;2022-11-15T00:46:43;97222.97;;;4.54;100.00
57763;BME280;43592;42.524;12.052;2022-11-15T00:49:09;97223.03;;;4.48;100.00
57763;BME280;43592;42.524;12.052;2022-11-15T00:51:34;97221.22;;;4.44;100.00
57763;BME280;43592;42.524;12.052;2022-11-15T00:54:00;97221.59;;;4.37;100.00
57763;BME280;43592;42.524;12.052;2022-11-15T00:56:25;97220.00;;;4.36;100.00
57763;BME280;43592;42.524;12.052;2022-11-15T00:58:51;97219.16;;;4.41;100.00
57763;BME280;43592;42.524;12.052;2022-11-15T01:01:17;97222.31;;;4.43;100.00
57763;BME280;43592;42.524;12.052;2022-11-15T01:03:42;97222.81;;;4.45;100.00
57763;BME280;43592;42.524;12.052;2022-11-15T01:06:08;97219.66;;;4.43;100.00
57763;BME280;43592;42.524;12.052;2022-11-15T01:08:34;97212.06;;;4.36;100.00
57763;BME280;43592;42.524;12.052;2022-11-15T01:11:03;97208.19;;;4.28;100.00
57763;BME280;43592;42.524;12.052;2022-11-15T01:13:30;97204.59;;;4.19;100.00
57763;BME280;43592;42.524;12.052;2022-11-15T01:15:55;97205.69;;;4.13;100.00
57763;BME280;43592;42.524;12.052;2022-11-15T01:18:21;97201.47;;;4.12;100.00
57763;BME280;43592;42.524;12.052;2022-11-15T01:20:46;97198.31;;;4.10;100.00
57763;BME280;43592;42.524;12.052;2022-11-15T01:23:11;97196.41;;;4.16;100.00
57763;BME280;43592;42.524;12.052;2022-11-15T01:25:37;97188.91;;;4.23;100.00
57763;BME280;43592;42.524;12.052;2022-11-15T01:28:03;97185.41;;;4.27;100.00
57763;BME280;43592;42.524;12.052;2022-11-15T01:30:28;97190.72;;;4.27;100.00
57763;BME280;43592;42.524;12.052;2022-11-15T01:32:54;97192.84;;;4.25;100.00
57763;BME280;43592;42.524;12.052;2022-11-15T01:35:20;97183.88;;;4.21;100.00
57763;BME280;43592;42.524;12.052;2022-11-15T01:37:45;97191.63;;;4.18;100.00
57763;BME280;43592;42.524;12.052;2022-11-15T01:40:11;97192.69;;;4.17;100.00
57763;BME280;43592;42.524;12.052;2022-11-15T01:42:37;97187.09;;;4.18;100.00
57763;BME280;43592;42.524;12.052;2022-11-15T01:45:02;97179.16;;;4.18;100.00
57763;BME280;43592;42.524;12.052;2022-11-15T01:47:29;97177.28;;;4.19;100.00
57763;BME280;43592;42.524;12.052;2022-11-15T01:50:01;97174.56;;;4.24;100.00
57763;BME280;43592;42.524;12.052;2022-11-15T01:52:28;97166.56;;;4.29;100.00
57763;BME280;43592;42.524;12.052;2022-11-15T01:54:59;97171.28;;;4.32;100.00
57763;BME280;43592;42.524;12.052;2022-11-15T01:57:27;97164.44;;;4.31;100.00
57763;BME280;43592;42.524;12.052;2022-11-15T01:59:53;97158.91;;;4.27;100.00
57763;BME280;43592;42.524;12.052;2022-11-15T02:02:19;97161.84;;;4.26;100.00
57763;BME280;43592;42.524;12.052;2022-11-15T02:04:45;97156.59;;;4.21;100.00
57763;BME280;43592;42.524;12.052;2022-11-15T02:07:12;97159.09;;;4.12;100.00
57763;BME280;43592;42.524;12.052;2022-11-15T02:09:38;97175.34;;;4.05;100.00
57763;BME280;43592;42.524;12.052;2022-11-15T02:12:05;97173.84;;;3.99;100.00
57763;BME280;43592;42.524;12.052;2022-11-15T02:14:32;97174.41;;;3.96;100.00
57763;BME280;43592;42.524;12.052;2022-11-15T02:17:00;97175.44;;;3.95;100.00
57763;BME280;43592;42.524;12.052;2022-11-15T02:27:16;97157.91;;;4.23;100.00
57763;BME280;43592;42.524;12.052;2022-11-15T02:29:57;97149.81;;;4.34;100.00
57763;BME280;43592;42.524;12.052;2022-11-15T02:42:45;97165.84;;;4.23;100.00
57763;BME280;43592;42.524;12.052;2022-11-15T02:45:39;97171.50;;;4.17;100.00
57763;BME280;43592;42.524;12.052;2022-11-15T02:48:05;97167.34;;;4.11;100.00
57763;BME280;43592;42.524;12.052;2022-11-15T02:50:32;97158.66;;;4.05;100.00
57763;BME280;43592;42.524;12.052;2022-11-15T02:52:58;97157.38;;;4.02;100.00
57763;BME280;43592;42.524;12.052;2022-11-15T02:55:27;97153.13;;;4.01;100.00
57763;BME280;43592;42.524;12.052;2022-11-15T02:58:17;97152.28;;;4.06;100.00
57763;BME280;43592;42.524;12.052;2022-11-15T03:00:47;97159.88;;;4.13;100.00
57763;BME280;43592;42.524;12.052;2022-11-15T03:05:53;97140.47;;;3.98;100.00
57763;BME280;43592;42.524;12.052;2022-11-15T03:08:31;97142.94;;;3.90;100.00
57763;BME280;43592;42.524;12.052;2022-11-15T03:16:29;97141.09;;;3.90;100.00
57763;BME280;43592;42.524;12.052;2022-11-15T03:18:58;97137.88;;;3.93;100.00
57763;BME280;43592;42.524;12.052;2022-11-15T03:21:25;97146.84;;;3.97;100.00
57763;BME280;43592;42.524;12.052;2022-11-15T03:23:53;97145.19;;;4.01;100.00
57763;BME280;43592;42.524;12.052;2022-11-15T03:26:21;97145.69;;;4.03;100.00
57763;BME280;43592;42.524;12.052;2022-11-15T03:31:14;97140.69;;;4.02;100.00
57763;BME280;43592;42.524;12.052;2022-11-15T03:33:59;97138.53;;;4.04;100.00
57763;BME280;43592;42.524;12.052;2022-11-15T03:36:26;97144.63;;;4.04;100.00
57763;BME280;43592;42.524;12.052;2022-11-15T03:38:53;97140.69;;;4.02;100.00
57763;BME280;43592;42.524;12.052;2022-11-15T03:41:43;97144.19;;;3.97;100.00
57763;BME280;43592;42.524;12.052;2022-11-15T03:44:21;97149.03;;;3.90;100.00
57763;BME280;43592;42.524;12.052;2022-11-15T03:47:00;97146.72;;;3.83;100.00
57763;BME280;43592;42.524;12.052;2022-11-15T03:49:32;97151.81;;;3.80;100.00
57763;BME280;43592;42.524;12.052;2022-11-15T03:51:59;97153.88;;;3.83;100.00
57763;BME280;43592;42.524;12.052;2022-11-15T03:54:25;97156.75;;;3.87;100.00
57763;BME280;43592;42.524;12.052;2022-11-15T03:56:51;97150.56;;;3.96;100.00
57763;BME280;43592;42.524;12.052;2022-11-15T03:59:16;97151.00;;;4.03;100.00
57763;BME280;43592;42.524;12.052;2022-11-15T04:01:42;97142.69;;;4.10;100.00
57763;BME280;43592;42.524;12.052;2022-11-15T04:04:07;97138.13;;;4.16;100.00
57763;BME280;43592;42.524;12.052;2022-11-15T04:06:33;97140.13;;;4.24;100.00
57763;BME280;43592;42.524;12.052;2022-11-15T04:08:59;97127.84;;;4.33;100.00
57763;BME280;43592;42.524;12.052;2022-11-15T04:11:24;97134.22;;;4.51;100.00
57763;BME280;43592;42.524;12.052;2022-11-15T04:13:50;97136.47;;;4.58;100.00
57763;BME280;43592;42.524;12.052;2022-11-15T04:16:15;97136.56;;;4.53;100.00
57763;BME280;43592;42.524;12.052;2022-11-15T04:18:41;97131.69;;;4.41;100.00
57763;BME280;43592;42.524;12.052;2022-11-15T04:21:07;97124.94;;;4.30;100.00
57763;BME280;43592;42.524;12.052;2022-11-15T04:23:51;97112.66;;;4.20;100.00
57763;BME280;43592;42.524;12.052;2022-11-15T04:26:18;97115.63;;;4.13;100.00
57763;BME280;43592;42.524;12.052;2022-11-15T04:28:44;97106.69;;;4.09;100.00
57763;BME280;43592;42.524;12.052;2022-11-15T04:31:28;97104.31;;;4.08;100.00
57763;BME280;43592;42.524;12.052;2022-11-15T04:33:54;97115.16;;;4.11;100.00
57763;BME280;43592;42.524;12.052;2022-11-15T04:36:19;97108.75;;;4.12;100.00
57763;BME280;43592;42.524;12.052;2022-11-15T04:39:04;97100.59;;;4.09;100.00
57763;BME280;43592;42.524;12.052;2022-11-15T04:41:29;97103.84;;;4.05;100.00
57763;BME280;43592;42.524;12.052;2022-11-15T04:43:55;97102.75;;;4.07;100.00
57763;BME280;43592;42.524;12.052;2022-11-15T04:46:21;97103.06;;;4.05;100.00
57763;BME280;43592;42.524;12.052;2022-11-15T04:48:46;97114.22;;;4.02;100.00
57763;BME280;43592;42.524;12.052;2022-11-15T04:51:12;97124.28;;;4.00;100.00
57763;BME280;43592;42.524;12.052;2022-11-15T04:53:37;97134.38;;;3.98;100.00
57763;BME280;43592;42.524;12.052;2022-11-15T04:56:03;97116.63;;;3.98;100.00
57763;BME280;43592;42.524;12.052;2022-11-15T04:58:28;97112.63;;;4.01;100.00
57763;BME280;43592;42.524;12.052;2022-11-15T05:00:54;97090.28;;;4.07;100.00
57763;BME280;43592;42.524;12.052;2022-11-15T05:03:19;97098.31;;;4.21;100.00
57763;BME280;43592;42.524;12.052;2022-11-15T05:06:03;97097.88;;;4.33;100.00
57763;BME280;43592;42.524;12.052;2022-11-15T05:08:28;97098.84;;;4.42;100.00
57763;BME280;43592;42.524;12.052;2022-11-15T05:10:54;97095.66;;;4.40;100.00
57763;BME280;43592;42.524;12.052;2022-11-15T05:13:19;97098.97;;;4.32;100.00
57763;BME280;43592;42.524;12.052;2022-11-15T05:15:45;97101.75;;;4.21;100.00
57763;BME280;43592;42.524;12.052;2022-11-15T05:18:10;97108.50;;;4.14;100.00
57763;BME280;43592;42.524;12.052;2022-11-15T05:20:36;97104.03;;;4.09;100.00
57763;BME280;43592;42.524;12.052;2022-11-15T05:23:02;97106.69;;;4.09;100.00
57763;BME280;43592;42.524;12.052;2022-11-15T05:25:27;97093.66;;;4.13;100.00
57763;BME280;43592;42.524;12.052;2022-11-15T05:27:53;97097.59;;;4.15;100.00
57763;BME280;43592;42.524;12.052;2022-11-15T05:30:19;97104.53;;;4.30;100.00
57763;BME280;43592;42.524;12.052;2022-11-15T05:32:44;97118.50;;;4.36;100.00
57763;BME280;43592;42.524;12.052;2022-11-15T05:35:12;97115.31;;;4.39;100.00
57763;BME280;43592;42.524;12.052;2022-11-15T05:37:39;97101.97;;;4.44;100.00
57763;BME280;43592;42.524;12.052;2022-11-15T05:40:05;97102.31;;;4.56;100.00
57763;BME280;43592;42.524;12.052;2022-11-15T05:42:30;97096.28;;;4.69;100.00
57763;BME280;43592;42.524;12.052;2022-11-15T05:44:56;97097.09;;;4.84;100.00
57763;BME280;43592;42.524;12.052;2022-11-15T05:47:23;97102.06;;;4.90;100.00
57763;BME280;43592;42.524;12.052;2022-11-15T05:49:50;97112.78;;;4.99;100.00
57763;BME280;43592;42.524;12.052;2022-11-15T05:52:18;97120.34;;;5.06;100.00
57763;BME280;43592;42.524;12.052;2022-11-15T05:54:45;97119.38;;;5.02;100.00
57763;BME280;43592;42.524;12.052;2022-11-15T05:57:11;97122.09;;;4.97;100.00
57763;BME280;43592;42.524;12.052;2022-11-15T05:59:37;97122.19;;;4.91;100.00
57763;BME280;43592;42.524;12.052;2022-11-15T06:02:02;97124.56;;;4.93;100.00
57763;BME280;43592;42.524;12.052;2022-11-15T06:04:28;97108.06;;;4.96;100.00
57763;BME280;43592;42.524;12.052;2022-11-15T06:06:54;97114.34;;;5.00;100.00
57763;BME280;43592;42.524;12.052;2022-11-15T06:09:19;97121.34;;;5.10;100.00
57763;BME280;43592;42.524;12.052;2022-11-15T06:11:45;97122.75;;;5.21;100.00
57763;BME280;43592;42.524;12.052;2022-11-15T06:14:10;97116.28;;;5.27;100.00
57763;BME280;43592;42.524;12.052;2022-11-15T06:16:35;97107.72;;;5.30;100.00
57763;BME280;43592;42.524;12.052;2022-11-15T06:19:01;97120.09;;;5.35;100.00
57763;BME280;43592;42.524;12.052;2022-11-15T06:21:26;97124.25;;;5.41;100.00
57763;BME280;43592;42.524;12.052;2022-11-15T06:23:54;97121.72;;;5.50;100.00
57763;BME280;43592;42.524;12.052;2022-11-15T06:26:19;97131.25;;;5.65;100.00
57763;BME280;43592;42.524;12.052;2022-11-15T06:28:45;97121.41;;;5.79;100.00
57763;BME280;43592;42.524;12.052;2022-11-15T06:31:10;97116.91;;;5.93;100.00
57763;BME280;43592;42.524;12.052;2022-11-15T06:33:39;97118.28;;;6.04;100.00
57763;BME280;43592;42.524;12.052;2022-11-15T06:36:06;97116.19;;;6.15;100.00
57763;BME280;43592;42.524;12.052;2022-11-15T06:38:31;97126.13;;;6.23;100.00
57763;BME280;43592;42.524;12.052;2022-11-15T06:41:04;97131.81;;;6.30;100.00
57763;BME280;43592;42.524;12.052;2022-11-15T06:43:30;97130.59;;;6.37;100.00
57763;BME280;43592;42.524;12.052;2022-11-15T06:45:57;97131.59;;;6.41;100.00
57763;BME280;43592;42.524;12.052;2022-11-15T06:48:22;97122.69;;;6.45;100.00
57763;BME280;43592;42.524;12.052;2022-11-15T06:50:51;97120.72;;;6.51;100.00
57763;BME280;43592;42.524;12.052;2022-11-15T06:53:17;97121.38;;;6.57;100.00
57763;BME280;43592;42.524;12.052;2022-11-15T06:55:42;97121.78;;;6.64;100.00
57763;BME280;43592;42.524;12.052;2022-11-15T06:58:08;97121.34;;;6.70;100.00
57763;BME280;43592;42.524;12.052;2022-11-15T07:00:33;97121.22;;;6.75;100.00
57763;BME280;43592;42.524;12.052;2022-11-15T07:02:59;97123.88;;;6.75;100.00
57763;BME280;43592;42.524;12.052;2022-11-15T07:05:26;97124.06;;;6.79;100.00
57763;BME280;43592;42.524;12.052;2022-11-15T07:07:52;97120.50;;;6.84;100.00
57763;BME280;43592;42.524;12.052;2022-11-15T07:10:18;97122.56;;;6.87;100.00
57763;BME280;43592;42.524;12.052;2022-11-15T07:12:46;97126.50;;;6.89;100.00
57763;BME280;43592;42.524;12.052;2022-11-15T07:15:12;97119.19;;;6.95;100.00
57763;BME280;43592;42.524;12.052;2022-11-15T07:17:37;97123.88;;;6.98;100.00
57763;BME280;43592;42.524;12.052;2022-11-15T07:20:03;97119.56;;;7.02;100.00
57763;BME280;43592;42.524;12.052;2022-11-15T07:22:28;97116.75;;;7.07;100.00
57763;BME280;43592;42.524;12.052;2022-11-15T07:24:54;97116.63;;;7.12;100.00
57763;BME280;43592;42.524;12.052;2022-11-15T07:27:20;97117.88;;;7.15;100.00
57763;BME280;43592;42.524;12.052;2022-11-15T07:29:45;97115.72;;;7.17;100.00
57763;BME280;43592;42.524;12.052;2022-11-15T07:32:11;97118.88;;;7.19;100.00
57763;BME280;43592;42.524;12.052;2022-11-15T07:34:36;97117.44;;;7.22;100.00
57763;BME280;43592;42.524;12.052;2022-11-15T07:37:02;97125.91;;;7.24;100.00
57763;BME280;43592;42.524;12.052;2022-11-15T07:39:27;97126.91;;;7.28;100.00
57763;BME280;43592;42.524;12.052;2022-11-15T07:41:52;97121.25;;;7.29;100.00
57763;BME280;43592;42.524;12.052;2022-11-15T07:44:38;97125.84;;;7.37;100.00
57763;BME280;43592;42.524;12.052;2022-11-15T07:47:03;97129.31;;;7.47;100.00
57763;BME280;43592;42.524;12.052;2022-11-15T07:49:29;97124.03;;;7.55;100.00
57763;BME280;43592;42.524;12.052;2022-11-15T07:51:54;97125.94;;;7.63;100.00
57763;BME280;43592;42.524;12.052;2022-11-15T07:54:20;97127.06;;;7.71;100.00
57763;BME280;43592;42.524;12.052;2022-11-15T07:56:45;97127.41;;;7.78;100.00
57763;BME280;43592;42.524;12.052;2022-11-15T07:59:11;97124.59;;;7.83;100.00
57763;BME280;43592;42.524;12.052;2022-11-15T08:01:36;97117.88;;;7.86;100.00
57763;BME280;43592;42.524;12.052;2022-11-15T08:04:02;97119.47;;;7.87;100.00
57763;BME280;43592;42.524;12.052;2022-11-15T08:06:27;97113.66;;;7.85;100.00
57763;BME280;43592;42.524;12.052;2022-11-15T08:08:53;97105.03;;;7.88;100.00
57763;BME280;43592;42.524;12.052;2022-11-15T08:11:18;97112.28;;;7.96;100.00
57763;BME280;43592;42.524;12.052;2022-11-15T08:13:44;97108.66;;;8.09;100.00
57763;BME280;43592;42.524;12.052;2022-11-15T08:16:09;97106.03;;;8.18;100.00
57763;BME280;43592;42.524;12.052;2022-11-15T08:18:37;97097.88;;;8.32;100.00
57763;BME280;43592;42.524;12.052;2022-11-15T08:21:03;97091.03;;;8.48;100.00
57763;BME280;43592;42.524;12.052;2022-11-15T08:23:28;97097.47;;;8.56;100.00
57763;BME280;43592;42.524;12.052;2022-11-15T08:26:04;97088.97;;;8.63;100.00
57763;BME280;43592;42.524;12.052;2022-11-15T08:28:30;97078.47;;;8.66;100.00
57763;BME280;43592;42.524;12.052;2022-11-15T08:30:55;97086.63;;;8.70;100.00
57763;BME280;43592;42.524;12.052;2022-11-15T08:33:21;97088.03;;;8.76;100.00
57763;BME280;43592;42.524;12.052;2022-11-15T08:35:46;97090.06;;;8.70;100.00
57763;BME280;43592;42.524;12.052;2022-11-15T08:38:12;97097.59;;;8.68;100.00
57763;BME280;43592;42.524;12.052;2022-11-15T08:40:38;97090.56;;;8.64;100.00
57763;BME280;43592;42.524;12.052;2022-11-15T08:43:03;97083.97;;;8.52;100.00
57763;BME280;43592;42.524;12.052;2022-11-15T08:45:29;97091.66;;;8.45;100.00
57763;BME280;43592;42.524;12.052;2022-11-15T08:47:55;97095.06;;;8.37;100.00
57763;BME280;43592;42.524;12.052;2022-11-15T08:50:21;97092.41;;;8.28;100.00
57763;BME280;43592;42.524;12.052;2022-11-15T08:52:47;97083.47;;;8.24;100.00
57763;BME280;43592;42.524;12.052;2022-11-15T08:55:15;97087.53;;;8.22;100.00
57763;BME280;43592;42.524;12.052;2022-11-15T08:57:40;97083.47;;;8.24;100.00
57763;BME280;43592;42.524;12.052;2022-11-15T09:00:06;97087.38;;;8.27;100.00
57763;BME280;43592;42.524;12.052;2022-11-15T09:02:32;97088.81;;;8.33;100.00
57763;BME280;43592;42.524;12.052;2022-11-15T09:04:57;97086.94;;;8.42;100.00
57763;BME280;43592;42.524;12.052;2022-11-15T09:07:22;97085.38;;;8.50;100.00
57763;BME280;43592;42.524;12.052;2022-11-15T09:09:49;97086.00;;;8.56;100.00
57763;BME280;43592;42.524;12.052;2022-11-15T09:12:14;97084.91;;;8.65;100.00
57763;BME280;43592;42.524;12.052;2022-11-15T09:14:40;97091.34;;;8.73;100.00
57763;BME280;43592;42.524;12.052;2022-11-15T09:17:08;97091.94;;;8.79;100.00
57763;BME280;43592;42.524;12.052;2022-11-15T09:19:34;97080.78;;;8.85;100.00
57763;BME280;43592;42.524;12.052;2022-11-15T09:22:00;97082.81;;;8.88;100.00
57763;BME280;43592;42.524;12.052;2022-11-15T09:24:25;97075.75;;;8.92;100.00
57763;BME280;43592;42.524;12.052;2022-11-15T09:26:51;97077.94;;;8.99;100.00
57763;BME280;43592;42.524;12.052;2022-11-15T09:29:17;97086.56;;;9.05;100.00
57763;BME280;43592;42.524;12.052;2022-11-15T09:31:43;97072.56;;;9.08;100.00
57763;BME280;43592;42.524;12.052;2022-11-15T09:34:08;97077.28;;;9.11;100.00
57763;BME280;43592;42.524;12.052;2022-11-15T09:36:34;97075.38;;;9.11;100.00
57763;BME280;43592;42.524;12.052;2022-11-15T09:39:00;97081.19;;;9.13;100.00
57763;BME280;43592;42.524;12.052;2022-11-15T09:46:22;97078.28;;;9.44;100.00
57763;BME280;43592;42.524;12.052;2022-11-15T09:48:54;97076.16;;;9.59;100.00
57763;BME280;43592;42.524;12.052;2022-11-15T09:56:22;97064.78;;;10.00;100.00
57763;BME280;43592;42.524;12.052;2022-11-15T10:04:02;97046.22;;;10.25;100.00
57763;BME280;43592;42.524;12.052;2022-11-15T10:06:28;97043.63;;;10.37;100.00
57763;BME280;43592;42.524;12.052;2022-11-15T10:09:05;97038.44;;;10.53;100.00
57763;BME280;43592;42.524;12.052;2022-11-15T10:11:32;97037.72;;;10.65;100.00
57763;BME280;43592;42.524;12.052;2022-11-15T10:14:04;97033.84;;;10.74;100.00
57763;BME280;43592;42.524;12.052;2022-11-15T10:19:24;97020.16;;;10.88;100.00
57763;BME280;43592;42.524;12.052;2022-11-15T10:24:37;97016.81;;;10.91;100.00
57763;BME280;43592;42.524;12.052;2022-11-15T10:27:23;97014.59;;;10.93;100.00
57763;BME280;43592;42.524;12.052;2022-11-15T10:29:49;97007.00;;;10.95;100.00
57763;BME280;43592;42.524;12.052;2022-11-15T10:32:17;96999.88;;;10.99;100.00
57763;BME280;43592;42.524;12.052;2022-11-15T10:34:43;96988.03;;;11.00;100.00
57763;BME280;43592;42.524;12.052;2022-11-15T10:37:08;96985.03;;;11.02;100.00
57763;BME280;43592;42.524;12.052;2022-11-15T10:39:34;96980.00;;;11.00;100.00
57763;BME280;43592;42.524;12.052;2022-11-15T10:42:15;96982.03;;;11.04;100.00
57763;BME280;43592;42.524;12.052;2022-11-15T10:44:42;96973.97;;;11.04;100.00
57763;BME280;43592;42.524;12.052;2022-11-15T10:49:56;96973.31;;;11.07;100.00
57763;BME280;43592;42.524;12.052;2022-11-15T10:52:22;96973.44;;;11.10;100.00
57763;BME280;43592;42.524;12.052;2022-11-15T10:54:50;96973.09;;;11.12;100.00
57763;BME280;43592;42.524;12.052;2022-11-15T10:57:18;96964.28;;;11.11;100.00
57763;BME280;43592;42.524;12.052;2022-11-15T10:59:47;96957.38;;;11.10;100.00
57763;BME280;43592;42.524;12.052;2022-11-15T11:02:34;96949.34;;;11.10;100.00
57763;BME280;43592;42.524;12.052;2022-11-15T11:05:00;96939.06;;;11.12;100.00
57763;BME280;43592;42.524;12.052;2022-11-15T11:07:33;96941.88;;;11.16;100.00
57763;BME280;43592;42.524;12.052;2022-11-15T11:12:32;96933.50;;;11.17;100.00
57763;BME280;43592;42.524;12.052;2022-11-15T11:15:05;96942.44;;;11.21;100.00
57763;BME280;43592;42.524;12.052;2022-11-15T11:20:20;96935.63;;;11.24;100.00
57763;BME280;43592;42.524;12.052;2022-11-15T11:25:23;96942.06;;;11.23;100.00
57763;BME280;43592;42.524;12.052;2022-11-15T11:33:24;96917.06;;;11.07;100.00
57763;BME280;43592;42.524;12.052;2022-11-15T11:46:10;96900.25;;;10.82;100.00
57763;BME280;43592;42.524;12.052;2022-11-15T11:48:40;96907.47;;;10.81;100.00
57763;BME280;43592;42.524;12.052;2022-11-15T11:51:14;96896.34;;;10.79;100.00
57763;BME280;43592;42.524;12.052;2022-11-15T11:54:30;96905.03;;;10.76;100.00
57763;BME280;43592;42.524;12.052;2022-11-15T11:56:28;96899.22;;;10.74;100.00
57763;BME280;43592;42.524;12.052;2022-11-15T11:58:55;96887.75;;;10.73;100.00
57763;BME280;43592;42.524;12.052;2022-11-15T12:04:24;96886.16;;;10.72;100.00
57763;BME280;43592;42.524;12.052;2022-11-15T12:07:03;96888.63;;;10.77;100.00
57763;BME280;43592;42.524;12.052;2022-11-15T12:09:35;96872.25;;;10.79;100.00
57763;BME280;43592;42.524;12.052;2022-11-15T12:12:11;96870.44;;;10.83;100.00
57763;BME280;43592;42.524;12.052;2022-11-15T12:14:42;96869.78;;;10.86;100.00
57763;BME280;43592;42.524;12.052;2022-11-15T12:17:10;96864.19;;;10.91;100.00
57763;BME280;43592;42.524;12.052;2022-11-15T12:19:36;96862.84;;;10.97;100.00
57763;BME280;43592;42.524;12.052;2022-11-15T12:24:33;96858.50;;;11.05;100.00
57763;BME280;43592;42.524;12.052;2022-11-15T12:27:01;96860.06;;;11.06;100.00
57763;BME280;43592;42.524;12.052;2022-11-15T12:29:33;96853.59;;;11.07;100.00
57763;BME280;43592;42.524;12.052;2022-11-15T12:32:00;96862.41;;;11.08;100.00
57763;BME280;43592;42.524;12.052;2022-11-15T12:36:54;96851.16;;;11.02;100.00
57763;BME280;43592;42.524;12.052;2022-11-15T12:39:20;96844.09;;;10.97;100.00
57763;BME280;43592;42.524;12.052;2022-11-15T12:45:22;96833.97;;;10.91;100.00
57763;BME280;43592;42.524;12.052;2022-11-15T13:04:44;96823.38;;;10.45;100.00
57763;BME280;43592;42.524;12.052;2022-11-15T13:07:09;96806.41;;;10.41;100.00
57763;BME280;43592;42.524;12.052;2022-11-15T13:09:55;96793.38;;;10.40;100.00
57763;BME280;43592;42.524;12.052;2022-11-15T13:14:58;96790.59;;;10.36;100.00
57763;BME280;43592;42.524;12.052;2022-11-15T13:17:29;96790.47;;;10.32;100.00
57763;BME280;43592;42.524;12.052;2022-11-15T13:19:59;96788.81;;;10.28;100.00
57763;BME280;43592;42.524;12.052;2022-11-15T13:22:26;96787.88;;;10.24;100.00
57763;BME280;43592;42.524;12.052;2022-11-15T13:27:48;96771.59;;;10.17;100.00
57763;BME280;43592;42.524;12.052;2022-11-15T13:30:16;96768.13;;;10.16;100.00
57763;BME280;43592;42.524;12.052;2022-11-15T13:32:44;96759.00;;;10.17;100.00
57763;BME280;43592;42.524;12.052;2022-11-15T13:35:09;96762.78;;;10.16;100.00
57763;BME280;43592;42.524;12.052;2022-11-15T13:37:35;96761.22;;;10.15;100.00
57763;BME280;43592;42.524;12.052;2022-11-15T13:40:22;96754.66;;;10.12;100.00
57763;BME280;43592;42.524;12.052;2022-11-15T13:42:50;96758.09;;;10.13;100.00
57763;BME280;43592;42.524;12.052;2022-11-15T13:45:17;96751.19;;;10.12;100.00
57763;BME280;43592;42.524;12.052;2022-11-15T13:47:43;96748.53;;;10.12;100.00
57763;BME280;43592;42.524;12.052;2022-11-15T13:50:12;96741.94;;;10.09;100.00
57763;BME280;43592;42.524;12.052;2022-11-15T13:52:38;96739.94;;;10.06;100.00
57763;BME280;43592;42.524;12.052;2022-11-15T13:55:12;96732.69;;;10.07;100.00
57763;BME280;43592;42.524;12.052;2022-11-15T13:57:42;96738.81;;;10.07;100.00
57763;BME280;43592;42.524;12.052;2022-11-15T14:02:47;96729.03;;;10.11;100.00
57763;BME280;43592;42.524;12.052;2022-11-15T14:05:17;96727.25;;;10.16;100.00
57763;BME280;43592;42.524;12.052;2022-11-15T14:07:53;96722.81;;;10.20;100.00
57763;BME280;43592;42.524;12.052;2022-11-15T14:12:54;96718.78;;;10.26;100.00
57763;BME280;43592;42.524;12.052;2022-11-15T14:15:30;96723.50;;;10.29;100.00
57763;BME280;43592;42.524;12.052;2022-11-15T14:17:55;96705.88;;;10.28;100.00
57763;BME280;43592;42.524;12.052;2022-11-15T14:22:57;96704.31;;;10.27;100.00
57763;BME280;43592;42.524;12.052;2022-11-15T14:25:41;96698.97;;;10.27;100.00
57763;BME280;43592;42.524;12.052;2022-11-15T14:28:12;96702.53;;;10.31;100.00
57763;BME280;43592;42.524;12.052;2022-11-15T14:30:40;96686.50;;;10.31;100.00
57763;BME280;43592;42.524;12.052;2022-11-15T14:33:19;96687.72;;;10.33;100.00
57763;BME280;43592;42.524;12.052;2022-11-15T14:35:45;96682.38;;;10.33;100.00
57763;BME280;43592;42.524;12.052;2022-11-15T14:38:10;96684.25;;;10.33;100.00
57763;BME280;43592;42.524;12.052;2022-11-15T14:40:36;96688.03;;;10.32;100.00
57763;BME280;43592;42.524;12.052;2022-11-15T14:43:01;96669.69;;;10.30;100.00
57763;BME280;43592;42.524;12.052;2022-11-15T14:45:27;96673.13;;;10.31;100.00
57763;BME280;43592;42.524;12.052;2022-11-15T14:47:53;96673.91;;;10.31;100.00